createdAt,value
2023-03-22T00:01:59.689Z,8.48
2023-03-22T00:04:25.850Z,8.49
2023-03-22T00:06:51.970Z,8.49
2023-03-22T00:09:18.178Z,8.54
2023-03-22T00:11:44.360Z,8.58
2023-03-22T00:14:10.505Z,8.64
2023-03-22T00:16:36.682Z,8.77
2023-03-22T00:19:02.810Z,8.93
2023-03-22T00:21:28.970Z,8.96
2023-03-22T00:23:55.092Z,9.00
2023-03-22T00:26:21.289Z,9.01
2023-03-22T00:28:47.413Z,9.04
2023-03-22T00:31:13.639Z,9.14
2023-03-22T00:33:39.875Z,9.15
2023-03-22T00:36:06.046Z,9.16
2023-03-22T00:38:41.751Z,9.22
2023-03-22T00:41:08.861Z,9.29
2023-03-22T00:43:35.069Z,9.34
2023-03-22T00:46:01.230Z,9.35
2023-03-22T00:48:27.370Z,9.37
2023-03-22T00:50:53.513Z,9.43
2023-03-22T00:53:19.686Z,9.43
2023-03-22T00:55:45.846Z,9.54
2023-03-22T00:58:12.018Z,9.55
2023-03-22T01:00:38.413Z,9.66
2023-03-22T01:03:04.870Z,9.74
2023-03-22T01:05:31.069Z,9.74
2023-03-22T01:07:57.272Z,9.69
2023-03-22T01:10:23.404Z,9.66
2023-03-22T01:12:49.536Z,9.64
2023-03-22T01:15:15.718Z,9.71
2023-03-22T01:17:41.900Z,9.73
2023-03-22T01:20:08.063Z,9.70
2023-03-22T01:22:34.187Z,9.71
2023-03-22T01:25:00.335Z,9.71
2023-03-22T01:27:26.513Z,9.81
2023-03-22T01:29:52.709Z,9.76
2023-03-22T01:32:18.897Z,9.70
2023-03-22T01:34:45.073Z,9.68
2023-03-22T01:37:11.243Z,9.71
2023-03-22T01:39:37.366Z,9.71
2023-03-22T01:42:03.537Z,9.71
2023-03-22T01:44:29.705Z,9.74
2023-03-22T01:46:55.850Z,9.72
2023-03-22T01:49:22.080Z,9.67
2023-03-22T01:51:48.278Z,9.74
2023-03-22T01:54:14.438Z,9.75
2023-03-22T01:56:40.563Z,9.71
2023-03-22T01:59:06.818Z,9.74
2023-03-22T02:01:33.052Z,9.80
2023-03-22T02:03:59.296Z,9.93
2023-03-22T02:06:25.469Z,10.07
2023-03-22T02:08:51.639Z,10.11
2023-03-22T02:11:17.827Z,10.10
2023-03-22T02:13:44.034Z,10.04
2023-03-22T02:16:10.247Z,10.04
2023-03-22T02:18:36.439Z,10.05
2023-03-22T02:21:02.666Z,10.04
2023-03-22T02:23:28.864Z,9.95
2023-03-22T02:25:55.055Z,9.91
2023-03-22T02:28:21.248Z,10.02
2023-03-22T02:30:47.404Z,10.00
2023-03-22T02:33:13.626Z,9.94
2023-03-22T02:35:39.838Z,9.89
2023-03-22T02:38:05.991Z,9.83
2023-03-22T02:40:32.178Z,9.80
2023-03-22T02:42:58.344Z,9.79
2023-03-22T02:45:24.473Z,9.78
2023-03-22T02:47:50.740Z,9.75
2023-03-22T02:50:16.938Z,9.81
2023-03-22T02:52:43.101Z,9.82
2023-03-22T02:55:09.264Z,9.85
2023-03-22T02:57:35.453Z,9.86
2023-03-22T03:00:01.675Z,9.88
2023-03-22T03:02:27.887Z,9.83
2023-03-22T03:04:54.128Z,9.80
2023-03-22T03:12:50.401Z,9.67
2023-03-22T03:15:16.558Z,9.66
2023-03-22T03:17:42.710Z,9.59
2023-03-22T03:20:08.862Z,9.62
2023-03-22T03:22:35.061Z,9.49
2023-03-22T03:25:01.234Z,9.37
2023-03-22T03:27:27.388Z,9.29
2023-03-22T03:29:53.557Z,9.27
2023-03-22T03:32:19.710Z,9.38
2023-03-22T03:34:45.870Z,9.41
2023-03-22T03:37:12.020Z,9.45
2023-03-22T03:39:38.160Z,9.49
2023-03-22T03:42:04.310Z,9.52
2023-03-22T03:44:30.499Z,9.66
2023-03-22T03:46:56.699Z,9.68
2023-03-22T03:49:22.864Z,9.74
2023-03-22T03:51:49.051Z,9.71
2023-03-22T03:54:15.191Z,9.70
2023-03-22T03:56:41.338Z,9.72
2023-03-22T03:59:07.465Z,9.58
2023-03-22T04:01:33.618Z,9.37
2023-03-22T04:03:59.836Z,9.24
2023-03-22T04:06:26.053Z,9.27
2023-03-22T04:08:52.193Z,9.24
2023-03-22T04:11:18.386Z,9.24
2023-03-22T04:13:44.573Z,9.12
2023-03-22T04:16:10.744Z,9.17
2023-03-22T04:18:36.903Z,9.20
2023-03-22T04:21:03.044Z,9.34
2023-03-22T04:23:29.244Z,9.32
2023-03-22T04:25:55.397Z,9.34
2023-03-22T04:28:21.515Z,9.39
2023-03-22T04:30:47.670Z,9.36
2023-03-22T04:33:13.866Z,9.24
2023-03-22T04:35:40.028Z,9.14
2023-03-22T04:38:06.159Z,9.04
2023-03-22T04:40:32.299Z,9.10
2023-03-22T04:42:58.472Z,8.97
2023-03-22T04:45:24.620Z,9.00
2023-03-22T04:47:50.778Z,9.06
2023-03-22T04:50:16.964Z,9.08
2023-03-22T04:52:43.117Z,8.99
2023-03-22T04:55:09.277Z,8.87
2023-03-22T04:57:35.452Z,8.72
2023-03-22T05:00:01.606Z,8.66
2023-03-22T05:02:27.757Z,8.48
2023-03-22T05:04:53.919Z,8.62
2023-03-22T05:07:20.038Z,8.60
2023-03-22T05:09:46.199Z,8.51
2023-03-22T05:12:12.333Z,8.39
2023-03-22T05:14:38.586Z,8.31
2023-03-22T05:17:04.813Z,8.14
2023-03-22T05:19:31.002Z,8.20
2023-03-22T05:21:57.182Z,8.38
2023-03-22T05:24:23.359Z,8.25
2023-03-22T05:26:49.581Z,8.39
2023-03-22T05:29:15.815Z,8.40
2023-03-22T05:31:41.998Z,8.41
2023-03-22T05:34:08.180Z,8.25
2023-03-22T05:36:34.322Z,8.18
2023-03-22T05:39:00.474Z,8.05
2023-03-22T05:41:26.741Z,8.07
2023-03-22T05:43:52.956Z,8.05
2023-03-22T05:46:19.188Z,7.98
2023-03-22T05:48:45.418Z,7.95
2023-03-22T05:51:11.604Z,8.00
2023-03-22T05:53:37.730Z,8.04
2023-03-22T05:56:03.872Z,8.25
2023-03-22T05:58:30.001Z,8.21
2023-03-22T06:00:56.149Z,8.41
2023-03-22T06:03:22.418Z,8.55
2023-03-22T06:05:48.629Z,8.59
2023-03-22T06:08:14.834Z,8.75
2023-03-22T06:10:41.301Z,8.81
2023-03-22T06:13:07.694Z,8.86
2023-03-22T06:15:33.881Z,8.88
2023-03-22T06:18:00.043Z,8.95
2023-03-22T06:20:26.180Z,9.07
2023-03-22T06:22:52.326Z,9.27
2023-03-22T06:25:18.449Z,9.36
2023-03-22T06:27:44.587Z,9.50
2023-03-22T06:30:10.730Z,9.68
2023-03-22T06:32:36.881Z,9.88
2023-03-22T06:35:03.050Z,9.89
2023-03-22T06:37:29.257Z,9.87
2023-03-22T06:39:55.486Z,10.10
2023-03-22T06:42:21.639Z,10.14
2023-03-22T06:44:47.772Z,10.42
2023-03-22T06:47:13.970Z,10.54
2023-03-22T06:49:40.164Z,10.77
2023-03-22T06:52:06.341Z,10.83
2023-03-22T06:54:32.478Z,10.86
2023-03-22T06:56:58.626Z,10.93
2023-03-22T06:59:24.766Z,11.04
2023-03-22T07:01:50.898Z,11.17
2023-03-22T07:04:17.158Z,11.28
2023-03-22T07:06:43.307Z,11.45
2023-03-22T07:09:09.458Z,11.29
2023-03-22T07:11:35.636Z,11.41
2023-03-22T07:14:01.771Z,11.73
2023-03-22T07:16:28.030Z,11.97
2023-03-22T07:18:54.192Z,12.24
2023-03-22T07:21:20.319Z,12.53
2023-03-22T07:23:46.457Z,12.79
2023-03-22T07:26:12.604Z,12.82
2023-03-22T07:31:29.811Z,13.03
2023-03-22T07:33:56.027Z,13.30
2023-03-22T07:36:22.161Z,13.33
2023-03-22T07:38:48.325Z,13.53
2023-03-22T07:41:17.835Z,13.79
2023-03-22T07:43:53.367Z,13.90
2023-03-22T07:46:24.901Z,13.97
2023-03-22T07:48:51.051Z,14.01
2023-03-22T07:51:17.178Z,14.11
2023-03-22T07:53:43.357Z,14.52
2023-03-22T07:56:09.505Z,14.90
2023-03-22T07:58:35.717Z,15.17
2023-03-22T08:01:01.985Z,14.84
2023-03-22T08:03:28.203Z,15.02
2023-03-22T08:05:54.387Z,15.55
2023-03-22T08:08:28.937Z,15.72
2023-03-22T08:10:55.222Z,15.99
2023-03-22T08:13:21.396Z,15.96
2023-03-22T08:15:47.610Z,16.47
2023-03-22T08:18:13.835Z,16.84
2023-03-22T08:20:40.218Z,16.85
2023-03-22T08:23:06.517Z,16.73
2023-03-22T08:25:32.748Z,16.80
2023-03-22T08:27:58.916Z,17.19
2023-03-22T08:30:25.101Z,17.16
2023-03-22T08:32:51.269Z,17.45
2023-03-22T08:35:17.529Z,17.12
2023-03-22T08:37:43.766Z,17.00
2023-03-22T08:40:09.967Z,16.80
2023-03-22T08:42:36.262Z,17.34
2023-03-22T08:45:02.393Z,17.46
2023-03-22T08:47:28.560Z,17.79
2023-03-22T08:49:54.749Z,17.73
2023-03-22T08:52:20.962Z,17.67
2023-03-22T08:54:47.098Z,17.84
2023-03-22T08:57:13.257Z,18.05
2023-03-22T08:59:39.481Z,18.01
2023-03-22T09:02:05.730Z,18.79
2023-03-22T09:04:32.013Z,18.50
2023-03-22T09:06:58.212Z,18.86
2023-03-22T09:09:24.389Z,18.59
2023-03-22T09:11:50.558Z,18.47
2023-03-22T09:14:16.719Z,18.00
2023-03-22T09:16:42.940Z,17.85
2023-03-22T09:19:09.086Z,18.10
2023-03-22T09:21:35.211Z,18.90
2023-03-22T09:24:01.505Z,19.36
2023-03-22T09:26:27.652Z,20.06
2023-03-22T09:28:53.850Z,20.18
2023-03-22T09:31:20.808Z,19.85
2023-03-22T09:33:47.096Z,20.20
2023-03-22T09:36:13.255Z,20.88
2023-03-22T09:38:39.453Z,20.89
2023-03-22T09:41:05.621Z,21.43
2023-03-22T09:43:33.170Z,21.49
2023-03-22T09:45:59.499Z,21.13
2023-03-22T09:48:25.745Z,20.71
2023-03-22T09:50:51.901Z,20.23
2023-03-22T09:53:18.034Z,19.52
2023-03-22T09:55:44.226Z,19.20
2023-03-22T09:58:10.401Z,19.40
2023-03-22T10:00:36.726Z,19.29
2023-03-22T10:03:02.927Z,19.51
2023-03-22T10:05:29.118Z,19.47
2023-03-22T10:07:55.326Z,18.99
2023-03-22T10:10:21.493Z,18.51
2023-03-22T10:12:47.686Z,18.46
2023-03-22T10:15:13.839Z,18.01
2023-03-22T10:17:39.995Z,18.05
2023-03-22T10:20:06.172Z,18.07
2023-03-22T10:22:32.307Z,17.80
2023-03-22T10:24:58.513Z,18.26
2023-03-22T10:27:24.733Z,18.74
2023-03-22T10:29:50.952Z,19.02
2023-03-22T10:32:17.133Z,19.03
2023-03-22T10:34:43.303Z,18.65
2023-03-22T10:37:09.425Z,18.82
2023-03-22T10:39:36.100Z,18.62
2023-03-22T10:42:03.383Z,18.68
2023-03-22T10:44:29.806Z,19.26
2023-03-22T10:46:56.044Z,19.92
2023-03-22T10:49:22.243Z,20.66
2023-03-22T10:51:48.438Z,21.63
2023-03-22T10:54:15.739Z,21.99
2023-03-22T10:56:41.907Z,19.90
2023-03-22T10:59:08.049Z,20.81
2023-03-22T11:01:34.373Z,20.96
2023-03-22T11:04:00.622Z,20.52
2023-03-22T11:06:26.865Z,20.94
2023-03-22T11:08:53.068Z,21.03
2023-03-22T11:11:19.283Z,20.96
2023-03-22T11:13:45.500Z,21.31
2023-03-22T11:16:11.661Z,21.23
2023-03-22T11:18:37.876Z,20.86
2023-03-22T11:21:04.088Z,19.77
2023-03-22T11:23:30.286Z,19.62
2023-03-22T11:25:56.557Z,21.08
2023-03-22T11:28:22.738Z,20.66
2023-03-22T11:30:48.939Z,20.21
2023-03-22T11:33:15.202Z,21.50
2023-03-22T11:35:41.482Z,21.95
2023-03-22T11:38:07.712Z,21.90
2023-03-22T11:40:33.967Z,21.16
2023-03-22T11:43:00.146Z,21.35
2023-03-22T11:45:26.380Z,20.28
2023-03-22T11:47:52.644Z,20.81
2023-03-22T11:50:18.918Z,21.42
2023-03-22T11:52:45.111Z,22.50
2023-03-22T11:55:11.358Z,22.70
2023-03-22T11:57:37.501Z,22.79
2023-03-22T12:00:03.639Z,23.24
2023-03-22T12:02:29.921Z,22.68
2023-03-22T12:04:56.247Z,22.35
2023-03-22T12:07:22.441Z,22.22
2023-03-22T12:09:48.658Z,22.83
2023-03-22T12:12:14.816Z,22.35
2023-03-22T12:14:41.037Z,23.35
2023-03-22T12:17:07.192Z,22.96
2023-03-22T12:19:33.409Z,23.74
2023-03-22T12:21:59.608Z,23.40
2023-03-22T12:24:25.770Z,22.73
2023-03-22T12:26:51.936Z,22.91
2023-03-22T12:29:18.121Z,23.10
2023-03-22T12:31:44.324Z,23.04
2023-03-22T12:34:10.502Z,23.81
2023-03-22T12:36:36.624Z,22.80
2023-03-22T12:39:02.792Z,22.77
2023-03-22T12:41:34.809Z,23.04
2023-03-22T12:44:01.008Z,23.49
2023-03-22T12:46:27.210Z,23.55
2023-03-22T12:48:54.528Z,23.64
2023-03-22T12:51:20.820Z,23.83
2023-03-22T12:53:47.019Z,22.77
2023-03-22T12:56:13.175Z,22.57
2023-03-22T12:58:39.372Z,22.76
2023-03-22T13:01:05.635Z,23.22
2023-03-22T13:03:34.971Z,22.38
2023-03-22T13:06:01.445Z,21.86
2023-03-22T13:08:27.630Z,21.53
2023-03-22T13:10:56.626Z,21.54
2023-03-22T13:13:22.830Z,22.04
2023-03-22T13:15:49.030Z,21.99
2023-03-22T13:18:15.274Z,22.47
2023-03-22T13:20:41.771Z,22.36
2023-03-22T13:23:08.083Z,21.68
2023-03-22T13:25:34.223Z,20.80
2023-03-22T13:28:00.406Z,20.56
2023-03-22T13:30:28.358Z,20.44
2023-03-22T13:32:56.326Z,20.38
2023-03-22T13:35:22.821Z,20.59
2023-03-22T13:37:49.039Z,20.79
2023-03-22T13:40:15.176Z,21.23
2023-03-22T13:42:41.415Z,21.32
2023-03-22T13:45:07.604Z,21.15
2023-03-22T13:47:33.796Z,20.63
2023-03-22T13:50:00.018Z,20.38
2023-03-22T13:52:26.194Z,20.03
2023-03-22T13:54:52.360Z,19.90
2023-03-22T13:57:18.559Z,19.78
2023-03-22T13:59:44.709Z,19.91
2023-03-22T14:02:10.917Z,20.01
2023-03-22T14:04:37.223Z,19.95
2023-03-22T14:07:03.366Z,19.95
2023-03-22T14:09:29.566Z,19.98
2023-03-22T14:11:57.128Z,20.02
2023-03-22T14:14:23.535Z,20.08
2023-03-22T14:16:49.754Z,19.84
2023-03-22T14:19:15.947Z,20.14
2023-03-22T14:21:42.143Z,19.75
